sensor_id;sensor_type;location;lat;lon;timestamp;P1;durP1;ratioP1;P2;durP2;ratioP2
41629;SDS011;27322;49.488;8.480;2023-04-03T00:00:41;4.85;;;2.38;;
41629;SDS011;27322;49.488;8.480;2023-04-03T00:03:06;3.50;;;1.80;;
41629;SDS011;27322;49.488;8.480;2023-04-03T00:05:32;3.50;;;1.80;;
41629;SDS011;27322;49.488;8.480;2023-04-03T00:07:58;4.57;;;1.90;;
41629;SDS011;27322;49.488;8.480;2023-04-03T00:10:23;5.80;;;2.20;;
41629;SDS011;27322;49.488;8.480;2023-04-03T00:12:49;3.97;;;1.90;;
41629;SDS011;27322;49.488;8.480;2023-04-03T00:15:15;4.38;;;2.00;;
41629;SDS011;27322;49.488;8.480;2023-04-03T00:17:41;4.18;;;1.90;;
41629;SDS011;27322;49.488;8.480;2023-04-03T00:20:06;5.00;;;2.20;;
41629;SDS011;27322;49.488;8.480;2023-04-03T00:22:33;5.25;;;2.13;;
41629;SDS011;27322;49.488;8.480;2023-04-03T00:24:58;3.92;;;1.92;;
41629;SDS011;27322;49.488;8.480;2023-04-03T00:27:24;4.25;;;1.92;;
41629;SDS011;27322;49.488;8.480;2023-04-03T00:29:50;6.47;;;2.50;;
41629;SDS011;27322;49.488;8.480;2023-04-03T00:32:15;6.22;;;2.30;;
41629;SDS011;27322;49.488;8.480;2023-04-03T00:34:41;5.60;;;2.10;;
41629;SDS011;27322;49.488;8.480;2023-04-03T00:37:06;4.45;;;2.22;;
41629;SDS011;27322;49.488;8.480;2023-04-03T00:39:32;4.88;;;2.10;;
41629;SDS011;27322;49.488;8.480;2023-04-03T00:41:58;3.80;;;1.90;;
41629;SDS011;27322;49.488;8.480;2023-04-03T00:46:58;4.70;;;1.75;;
41629;SDS011;27322;49.488;8.480;2023-04-03T00:49:25;5.15;;;2.33;;
41629;SDS011;27322;49.488;8.480;2023-04-03T00:51:51;4.78;;;1.92;;
41629;SDS011;27322;49.488;8.480;2023-04-03T00:54:17;4.78;;;1.95;;
41629;SDS011;27322;49.488;8.480;2023-04-03T00:56:43;4.78;;;1.90;;
41629;SDS011;27322;49.488;8.480;2023-04-03T01:01:37;4.22;;;1.85;;
41629;SDS011;27322;49.488;8.480;2023-04-03T01:04:04;3.78;;;1.80;;
41629;SDS011;27322;49.488;8.480;2023-04-03T01:06:32;3.60;;;1.70;;
41629;SDS011;27322;49.488;8.480;2023-04-03T01:09:01;5.13;;;2.03;;
41629;SDS011;27322;49.488;8.480;2023-04-03T01:11:28;6.43;;;2.08;;
41629;SDS011;27322;49.488;8.480;2023-04-03T01:13:53;6.93;;;1.73;;
41629;SDS011;27322;49.488;8.480;2023-04-03T01:16:19;4.10;;;1.92;;
41629;SDS011;27322;49.488;8.480;2023-04-03T01:18:45;4.50;;;1.90;;
41629;SDS011;27322;49.488;8.480;2023-04-03T01:26:43;5.15;;;2.28;;
41629;SDS011;27322;49.488;8.480;2023-04-03T01:29:09;6.32;;;2.67;;
41629;SDS011;27322;49.488;8.480;2023-04-03T01:31:49;7.57;;;2.70;;
41629;SDS011;27322;49.488;8.480;2023-04-03T01:34:19;4.70;;;2.45;;
41629;SDS011;27322;49.488;8.480;2023-04-03T01:36:45;5.00;;;2.30;;
41629;SDS011;27322;49.488;8.480;2023-04-03T01:39:11;4.90;;;2.35;;
41629;SDS011;27322;49.488;8.480;2023-04-03T01:41:37;4.85;;;2.40;;
41629;SDS011;27322;49.488;8.480;2023-04-03T01:44:03;6.47;;;2.10;;
41629;SDS011;27322;49.488;8.480;2023-04-03T01:46:29;4.13;;;1.98;;
41629;SDS011;27322;49.488;8.480;2023-04-03T01:48:55;4.63;;;2.10;;
41629;SDS011;27322;49.488;8.480;2023-04-03T01:51:20;6.18;;;2.38;;
41629;SDS011;27322;49.488;8.480;2023-04-03T01:53:46;4.90;;;2.40;;
41629;SDS011;27322;49.488;8.480;2023-04-03T01:56:12;4.40;;;2.05;;
41629;SDS011;27322;49.488;8.480;2023-04-03T01:58:38;5.25;;;2.47;;
41629;SDS011;27322;49.488;8.480;2023-04-03T02:01:03;4.90;;;2.20;;
41629;SDS011;27322;49.488;8.480;2023-04-03T02:03:29;4.25;;;2.22;;
41629;SDS011;27322;49.488;8.480;2023-04-03T02:05:55;5.03;;;2.10;;
41629;SDS011;27322;49.488;8.480;2023-04-03T02:08:21;4.13;;;2.22;;
41629;SDS011;27322;49.488;8.480;2023-04-03T02:10:47;4.65;;;2.15;;
41629;SDS011;27322;49.488;8.480;2023-04-03T02:13:14;4.90;;;2.58;;
41629;SDS011;27322;49.488;8.480;2023-04-03T02:15:40;4.85;;;2.15;;
41629;SDS011;27322;49.488;8.480;2023-04-03T02:18:06;5.30;;;2.58;;
41629;SDS011;27322;49.488;8.480;2023-04-03T02:20:32;4.60;;;2.40;;
41629;SDS011;27322;49.488;8.480;2023-04-03T02:22:58;5.00;;;2.30;;
41629;SDS011;27322;49.488;8.480;2023-04-03T02:25:24;5.78;;;2.22;;
41629;SDS011;27322;49.488;8.480;2023-04-03T02:27:50;3.97;;;2.13;;
41629;SDS011;27322;49.488;8.480;2023-04-03T02:30:15;7.35;;;2.25;;
41629;SDS011;27322;49.488;8.480;2023-04-03T02:32:41;4.63;;;2.10;;
41629;SDS011;27322;49.488;8.480;2023-04-03T02:35:08;4.55;;;2.55;;
41629;SDS011;27322;49.488;8.480;2023-04-03T02:37:34;6.20;;;2.35;;
41629;SDS011;27322;49.488;8.480;2023-04-03T02:40:00;3.97;;;2.00;;
41629;SDS011;27322;49.488;8.480;2023-04-03T02:42:26;6.38;;;2.28;;
41629;SDS011;27322;49.488;8.480;2023-04-03T02:44:52;5.10;;;2.30;;
41629;SDS011;27322;49.488;8.480;2023-04-03T02:47:17;4.70;;;2.40;;
41629;SDS011;27322;49.488;8.480;2023-04-03T02:49:43;4.80;;;2.65;;
41629;SDS011;27322;49.488;8.480;2023-04-03T02:52:10;5.15;;;2.40;;
41629;SDS011;27322;49.488;8.480;2023-04-03T02:54:37;7.22;;;2.55;;
41629;SDS011;27322;49.488;8.480;2023-04-03T02:57:02;5.05;;;2.53;;
41629;SDS011;27322;49.488;8.480;2023-04-03T02:59:28;4.72;;;2.50;;
41629;SDS011;27322;49.488;8.480;2023-04-03T03:01:54;4.35;;;2.33;;
41629;SDS011;27322;49.488;8.480;2023-04-03T03:04:20;8.18;;;2.20;;
41629;SDS011;27322;49.488;8.480;2023-04-03T03:06:46;6.45;;;2.50;;
41629;SDS011;27322;49.488;8.480;2023-04-03T03:09:12;4.05;;;2.17;;
41629;SDS011;27322;49.488;8.480;2023-04-03T03:11:38;4.38;;;2.45;;
41629;SDS011;27322;49.488;8.480;2023-04-03T03:14:04;3.70;;;2.28;;
41629;SDS011;27322;49.488;8.480;2023-04-03T03:16:30;5.28;;;2.70;;
41629;SDS011;27322;49.488;8.480;2023-04-03T03:18:55;5.82;;;2.40;;
41629;SDS011;27322;49.488;8.480;2023-04-03T03:21:21;5.03;;;2.50;;
41629;SDS011;27322;49.488;8.480;2023-04-03T03:23:47;7.05;;;2.40;;
41629;SDS011;27322;49.488;8.480;2023-04-03T03:26:13;5.10;;;2.80;;
41629;SDS011;27322;49.488;8.480;2023-04-03T03:28:39;5.68;;;2.60;;
41629;SDS011;27322;49.488;8.480;2023-04-03T03:31:05;4.50;;;2.40;;
41629;SDS011;27322;49.488;8.480;2023-04-03T03:33:31;6.68;;;2.53;;
41629;SDS011;27322;49.488;8.480;2023-04-03T03:35:57;4.93;;;2.55;;
41629;SDS011;27322;49.488;8.480;2023-04-03T03:38:23;4.45;;;2.38;;
41629;SDS011;27322;49.488;8.480;2023-04-03T03:40:49;5.10;;;2.75;;
41629;SDS011;27322;49.488;8.480;2023-04-03T03:43:16;6.38;;;2.45;;
41629;SDS011;27322;49.488;8.480;2023-04-03T03:45:43;5.35;;;2.65;;
41629;SDS011;27322;49.488;8.480;2023-04-03T03:48:09;4.38;;;2.53;;
41629;SDS011;27322;49.488;8.480;2023-04-03T03:50:35;5.38;;;2.80;;
41629;SDS011;27322;49.488;8.480;2023-04-03T03:53:00;4.50;;;2.65;;
41629;SDS011;27322;49.488;8.480;2023-04-03T03:55:26;4.97;;;2.35;;
41629;SDS011;27322;49.488;8.480;2023-04-03T03:57:52;4.30;;;2.50;;
41629;SDS011;27322;49.488;8.480;2023-04-03T04:00:17;5.82;;;2.60;;
41629;SDS011;27322;49.488;8.480;2023-04-03T04:02:43;5.07;;;2.60;;
41629;SDS011;27322;49.488;8.480;2023-04-03T04:05:09;6.25;;;2.60;;
41629;SDS011;27322;49.488;8.480;2023-04-03T04:07:35;5.72;;;2.85;;
41629;SDS011;27322;49.488;8.480;2023-04-03T04:10:00;5.07;;;2.63;;
41629;SDS011;27322;49.488;8.480;2023-04-03T04:12:26;5.80;;;2.35;;
41629;SDS011;27322;49.488;8.480;2023-04-03T04:14:52;5.03;;;2.30;;
41629;SDS011;27322;49.488;8.480;2023-04-03T04:17:17;5.45;;;2.60;;
41629;SDS011;27322;49.488;8.480;2023-04-03T04:19:44;5.65;;;2.67;;
41629;SDS011;27322;49.488;8.480;2023-04-03T04:22:10;5.07;;;2.70;;
41629;SDS011;27322;49.488;8.480;2023-04-03T04:24:36;6.97;;;2.53;;
41629;SDS011;27322;49.488;8.480;2023-04-03T04:27:02;4.93;;;2.60;;
41629;SDS011;27322;49.488;8.480;2023-04-03T04:29:27;6.03;;;2.90;;
41629;SDS011;27322;49.488;8.480;2023-04-03T04:31:53;7.55;;;2.95;;
41629;SDS011;27322;49.488;8.480;2023-04-03T04:34:19;5.75;;;2.75;;
41629;SDS011;27322;49.488;8.480;2023-04-03T04:36:45;6.63;;;2.90;;
41629;SDS011;27322;49.488;8.480;2023-04-03T04:39:10;6.40;;;2.95;;
41629;SDS011;27322;49.488;8.480;2023-04-03T04:41:36;5.03;;;2.80;;
41629;SDS011;27322;49.488;8.480;2023-04-03T04:44:02;4.45;;;2.67;;
41629;SDS011;27322;49.488;8.480;2023-04-03T04:46:27;6.38;;;3.05;;
41629;SDS011;27322;49.488;8.480;2023-04-03T04:48:53;5.90;;;2.70;;
41629;SDS011;27322;49.488;8.480;2023-04-03T04:51:19;6.13;;;2.90;;
41629;SDS011;27322;49.488;8.480;2023-04-03T04:53:45;5.85;;;2.97;;
41629;SDS011;27322;49.488;8.480;2023-04-03T04:56:10;6.03;;;2.40;;
41629;SDS011;27322;49.488;8.480;2023-04-03T04:58:36;5.28;;;2.95;;
41629;SDS011;27322;49.488;8.480;2023-04-03T05:01:02;7.32;;;2.80;;
41629;SDS011;27322;49.488;8.480;2023-04-03T05:03:32;6.15;;;2.95;;
41629;SDS011;27322;49.488;8.480;2023-04-03T05:05:58;4.88;;;2.88;;
41629;SDS011;27322;49.488;8.480;2023-04-03T05:08:24;6.25;;;2.90;;
41629;SDS011;27322;49.488;8.480;2023-04-03T05:10:50;5.28;;;2.72;;
41629;SDS011;27322;49.488;8.480;2023-04-03T05:13:16;5.45;;;3.03;;
41629;SDS011;27322;49.488;8.480;2023-04-03T05:15:42;6.07;;;3.13;;
41629;SDS011;27322;49.488;8.480;2023-04-03T05:18:07;8.32;;;3.40;;
41629;SDS011;27322;49.488;8.480;2023-04-03T05:20:33;5.97;;;3.17;;
41629;SDS011;27322;49.488;8.480;2023-04-03T05:22:59;6.38;;;3.28;;
41629;SDS011;27322;49.488;8.480;2023-04-03T05:25:25;6.45;;;3.17;;
41629;SDS011;27322;49.488;8.480;2023-04-03T05:27:51;8.63;;;3.30;;
41629;SDS011;27322;49.488;8.480;2023-04-03T05:30:16;9.15;;;3.60;;
41629;SDS011;27322;49.488;8.480;2023-04-03T05:32:42;7.35;;;3.42;;
41629;SDS011;27322;49.488;8.480;2023-04-03T05:35:09;5.93;;;3.03;;
41629;SDS011;27322;49.488;8.480;2023-04-03T05:37:35;6.50;;;3.25;;
41629;SDS011;27322;49.488;8.480;2023-04-03T05:40:02;11.00;;;3.38;;
41629;SDS011;27322;49.488;8.480;2023-04-03T05:42:30;5.53;;;3.05;;
41629;SDS011;27322;49.488;8.480;2023-04-03T05:44:56;5.75;;;3.20;;
41629;SDS011;27322;49.488;8.480;2023-04-03T05:47:22;7.20;;;3.60;;
41629;SDS011;27322;49.488;8.480;2023-04-03T05:49:47;8.88;;;3.45;;
41629;SDS011;27322;49.488;8.480;2023-04-03T05:54:48;6.28;;;3.53;;
41629;SDS011;27322;49.488;8.480;2023-04-03T05:57:17;7.30;;;3.67;;
41629;SDS011;27322;49.488;8.480;2023-04-03T05:59:43;6.57;;;3.05;;
41629;SDS011;27322;49.488;8.480;2023-04-03T06:02:20;6.88;;;3.03;;
41629;SDS011;27322;49.488;8.480;2023-04-03T06:04:47;5.97;;;3.10;;
41629;SDS011;27322;49.488;8.480;2023-04-03T06:07:13;6.22;;;3.30;;
41629;SDS011;27322;49.488;8.480;2023-04-03T06:09:41;5.68;;;2.95;;
41629;SDS011;27322;49.488;8.480;2023-04-03T06:12:08;6.95;;;3.05;;
41629;SDS011;27322;49.488;8.480;2023-04-03T06:14:33;5.35;;;3.00;;
41629;SDS011;27322;49.488;8.480;2023-04-03T06:16:59;5.80;;;2.90;;
41629;SDS011;27322;49.488;8.480;2023-04-03T06:19:25;9.52;;;3.45;;
41629;SDS011;27322;49.488;8.480;2023-04-03T06:21:51;8.45;;;3.45;;
41629;SDS011;27322;49.488;8.480;2023-04-03T06:24:17;7.07;;;3.45;;
41629;SDS011;27322;49.488;8.480;2023-04-03T06:26:44;5.07;;;2.72;;
41629;SDS011;27322;49.488;8.480;2023-04-03T06:29:10;7.70;;;3.20;;
41629;SDS011;27322;49.488;8.480;2023-04-03T06:31:36;6.00;;;3.08;;
41629;SDS011;27322;49.488;8.480;2023-04-03T06:34:02;5.47;;;3.33;;
41629;SDS011;27322;49.488;8.480;2023-04-03T06:36:28;6.70;;;3.15;;
41629;SDS011;27322;49.488;8.480;2023-04-03T06:38:54;8.63;;;3.30;;
41629;SDS011;27322;49.488;8.480;2023-04-03T06:41:21;6.53;;;2.78;;
41629;SDS011;27322;49.488;8.480;2023-04-03T06:43:46;5.38;;;2.83;;
41629;SDS011;27322;49.488;8.480;2023-04-03T06:46:16;7.60;;;2.78;;
41629;SDS011;27322;49.488;8.480;2023-04-03T06:48:43;5.53;;;2.90;;
41629;SDS011;27322;49.488;8.480;2023-04-03T06:51:19;5.63;;;2.38;;
41629;SDS011;27322;49.488;8.480;2023-04-03T06:53:48;4.85;;;2.55;;
41629;SDS011;27322;49.488;8.480;2023-04-03T06:56:15;6.00;;;2.28;;
41629;SDS011;27322;49.488;8.480;2023-04-03T06:58:41;5.93;;;2.83;;
41629;SDS011;27322;49.488;8.480;2023-04-03T07:01:08;4.72;;;2.40;;
41629;SDS011;27322;49.488;8.480;2023-04-03T07:03:35;6.95;;;2.72;;
41629;SDS011;27322;49.488;8.480;2023-04-03T07:06:01;5.60;;;2.63;;
41629;SDS011;27322;49.488;8.480;2023-04-03T07:08:28;5.80;;;2.50;;
41629;SDS011;27322;49.488;8.480;2023-04-03T07:10:54;6.22;;;3.17;;
41629;SDS011;27322;49.488;8.480;2023-04-03T07:13:19;4.68;;;2.40;;
41629;SDS011;27322;49.488;8.480;2023-04-03T07:15:45;5.35;;;2.60;;
41629;SDS011;27322;49.488;8.480;2023-04-03T07:18:11;4.22;;;2.45;;
41629;SDS011;27322;49.488;8.480;2023-04-03T07:20:36;6.68;;;2.58;;
41629;SDS011;27322;49.488;8.480;2023-04-03T07:23:03;9.07;;;2.53;;
41629;SDS011;27322;49.488;8.480;2023-04-03T07:25:29;6.55;;;2.40;;
41629;SDS011;27322;49.488;8.480;2023-04-03T07:27:55;5.35;;;2.35;;
41629;SDS011;27322;49.488;8.480;2023-04-03T07:30:21;7.25;;;2.67;;
41629;SDS011;27322;49.488;8.480;2023-04-03T07:32:47;7.05;;;2.80;;
41629;SDS011;27322;49.488;8.480;2023-04-03T07:35:12;5.93;;;2.83;;
41629;SDS011;27322;49.488;8.480;2023-04-03T07:37:38;6.68;;;2.83;;
41629;SDS011;27322;49.488;8.480;2023-04-03T07:40:04;5.85;;;2.22;;
41629;SDS011;27322;49.488;8.480;2023-04-03T07:42:31;6.43;;;2.50;;
41629;SDS011;27322;49.488;8.480;2023-04-03T07:44:57;6.35;;;2.72;;
41629;SDS011;27322;49.488;8.480;2023-04-03T07:47:23;5.05;;;2.15;;
41629;SDS011;27322;49.488;8.480;2023-04-03T07:49:48;4.75;;;2.17;;
41629;SDS011;27322;49.488;8.480;2023-04-03T07:52:14;5.78;;;2.50;;
41629;SDS011;27322;49.488;8.480;2023-04-03T07:54:40;5.65;;;2.03;;
41629;SDS011;27322;49.488;8.480;2023-04-03T07:57:07;5.50;;;2.45;;
41629;SDS011;27322;49.488;8.480;2023-04-03T07:59:32;6.55;;;2.60;;
41629;SDS011;27322;49.488;8.480;2023-04-03T08:01:58;4.95;;;2.05;;
41629;SDS011;27322;49.488;8.480;2023-04-03T08:04:24;7.38;;;2.35;;
41629;SDS011;27322;49.488;8.480;2023-04-03T08:06:51;5.00;;;2.25;;
41629;SDS011;27322;49.488;8.480;2023-04-03T08:09:17;4.40;;;2.30;;
41629;SDS011;27322;49.488;8.480;2023-04-03T08:11:44;5.85;;;2.08;;
41629;SDS011;27322;49.488;8.480;2023-04-03T08:14:10;5.22;;;1.80;;
41629;SDS011;27322;49.488;8.480;2023-04-03T08:16:41;5.00;;;1.73;;
41629;SDS011;27322;49.488;8.480;2023-04-03T08:19:07;4.00;;;1.90;;
41629;SDS011;27322;49.488;8.480;2023-04-03T08:21:33;6.78;;;1.70;;
41629;SDS011;27322;49.488;8.480;2023-04-03T08:23:59;5.97;;;2.13;;
41629;SDS011;27322;49.488;8.480;2023-04-03T08:26:25;5.35;;;1.90;;
41629;SDS011;27322;49.488;8.480;2023-04-03T08:28:51;5.00;;;1.73;;
41629;SDS011;27322;49.488;8.480;2023-04-03T08:31:18;3.88;;;1.63;;
41629;SDS011;27322;49.488;8.480;2023-04-03T08:33:45;6.10;;;1.80;;
41629;SDS011;27322;49.488;8.480;2023-04-03T08:36:19;6.22;;;1.90;;
41629;SDS011;27322;49.488;8.480;2023-04-03T08:38:49;4.78;;;2.00;;
41629;SDS011;27322;49.488;8.480;2023-04-03T08:41:20;4.93;;;1.60;;
41629;SDS011;27322;49.488;8.480;2023-04-03T08:44:00;6.25;;;1.50;;
41629;SDS011;27322;49.488;8.480;2023-04-03T08:49:27;3.92;;;1.40;;
41629;SDS011;27322;49.488;8.480;2023-04-03T08:52:13;5.57;;;1.40;;
41629;SDS011;27322;49.488;8.480;2023-04-03T08:54:51;4.10;;;1.20;;
41629;SDS011;27322;49.488;8.480;2023-04-03T08:57:29;3.80;;;1.45;;
41629;SDS011;27322;49.488;8.480;2023-04-03T08:59:59;5.40;;;1.50;;
41629;SDS011;27322;49.488;8.480;2023-04-03T09:02:34;5.22;;;1.40;;
41629;SDS011;27322;49.488;8.480;2023-04-03T09:05:13;3.95;;;1.10;;
41629;SDS011;27322;49.488;8.480;2023-04-03T09:07:55;5.85;;;1.30;;
41629;SDS011;27322;49.488;8.480;2023-04-03T09:10:35;4.68;;;1.15;;
41629;SDS011;27322;49.488;8.480;2023-04-03T09:16:02;4.07;;;1.00;;
41629;SDS011;27322;49.488;8.480;2023-04-03T09:18:41;3.45;;;1.20;;
41629;SDS011;27322;49.488;8.480;2023-04-03T09:21:28;4.07;;;1.10;;
41629;SDS011;27322;49.488;8.480;2023-04-03T09:24:02;4.53;;;1.00;;
41629;SDS011;27322;49.488;8.480;2023-04-03T09:29:02;4.57;;;1.13;;
41629;SDS011;27322;49.488;8.480;2023-04-03T09:31:38;4.72;;;1.00;;
41629;SDS011;27322;49.488;8.480;2023-04-03T09:34:08;4.15;;;1.00;;
41629;SDS011;27322;49.488;8.480;2023-04-03T09:36:48;3.25;;;1.00;;
41629;SDS011;27322;49.488;8.480;2023-04-03T09:39:20;3.30;;;1.10;;
41629;SDS011;27322;49.488;8.480;2023-04-03T09:41:59;3.72;;;0.98;;
41629;SDS011;27322;49.488;8.480;2023-04-03T09:44:30;5.38;;;1.20;;
41629;SDS011;27322;49.488;8.480;2023-04-03T09:46:58;3.40;;;1.15;;
41629;SDS011;27322;49.488;8.480;2023-04-03T09:49:23;2.72;;;0.90;;
41629;SDS011;27322;49.488;8.480;2023-04-03T09:51:49;3.25;;;1.00;;
41629;SDS011;27322;49.488;8.480;2023-04-03T09:54:26;3.25;;;0.90;;
41629;SDS011;27322;49.488;8.480;2023-04-03T09:56:55;2.95;;;1.02;;
41629;SDS011;27322;49.488;8.480;2023-04-03T09:59:22;1.95;;;0.80;;
41629;SDS011;27322;49.488;8.480;2023-04-03T10:01:59;3.65;;;0.70;;
41629;SDS011;27322;49.488;8.480;2023-04-03T10:04:36;2.25;;;0.90;;
41629;SDS011;27322;49.488;8.480;2023-04-03T10:07:04;3.72;;;0.88;;
41629;SDS011;27322;49.488;8.480;2023-04-03T10:09:58;3.60;;;0.80;;
41629;SDS011;27322;49.488;8.480;2023-04-03T10:12:26;2.17;;;0.90;;
41629;SDS011;27322;49.488;8.480;2023-04-03T10:17:18;4.43;;;0.90;;
41629;SDS011;27322;49.488;8.480;2023-04-03T10:27:42;2.83;;;1.10;;
41629;SDS011;27322;49.488;8.480;2023-04-03T10:35:53;2.83;;;0.80;;
41629;SDS011;27322;49.488;8.480;2023-04-03T10:41:39;3.80;;;0.90;;
41629;SDS011;27322;49.488;8.480;2023-04-03T10:46:47;3.08;;;0.80;;
41629;SDS011;27322;49.488;8.480;2023-04-03T10:57:47;3.97;;;0.90;;
41629;SDS011;27322;49.488;8.480;2023-04-03T11:00:34;1.73;;;0.80;;
41629;SDS011;27322;49.488;8.480;2023-04-03T11:03:12;2.85;;;0.88;;
41629;SDS011;27322;49.488;8.480;2023-04-03T11:11:00;2.63;;;1.00;;
41629;SDS011;27322;49.488;8.480;2023-04-03T11:13:43;3.35;;;0.93;;
41629;SDS011;27322;49.488;8.480;2023-04-03T11:16:21;3.45;;;0.98;;
41629;SDS011;27322;49.488;8.480;2023-04-03T11:19:05;2.75;;;0.90;;
41629;SDS011;27322;49.488;8.480;2023-04-03T11:21:41;3.47;;;1.00;;
41629;SDS011;27322;49.488;8.480;2023-04-03T11:24:45;3.78;;;0.98;;
41629;SDS011;27322;49.488;8.480;2023-04-03T11:27:05;3.78;;;1.00;;
41629;SDS011;27322;49.488;8.480;2023-04-03T11:29:35;4.68;;;0.90;;
41629;SDS011;27322;49.488;8.480;2023-04-03T11:32:08;2.08;;;0.88;;
41629;SDS011;27322;49.488;8.480;2023-04-03T11:34:53;2.88;;;0.88;;
41629;SDS011;27322;49.488;8.480;2023-04-03T11:37:34;2.88;;;1.00;;
41629;SDS011;27322;49.488;8.480;2023-04-03T11:40:07;5.15;;;1.00;;
41629;SDS011;27322;49.488;8.480;2023-04-03T11:43:04;2.67;;;0.88;;
41629;SDS011;27322;49.488;8.480;2023-04-03T11:45:34;2.60;;;0.80;;
41629;SDS011;27322;49.488;8.480;2023-04-03T11:50:56;3.58;;;0.95;;
41629;SDS011;27322;49.488;8.480;2023-04-03T11:53:37;2.45;;;0.90;;
41629;SDS011;27322;49.488;8.480;2023-04-03T12:04:16;3.75;;;1.05;;
41629;SDS011;27322;49.488;8.480;2023-04-03T12:11:53;3.42;;;0.95;;
41629;SDS011;27322;49.488;8.480;2023-04-03T12:14:21;3.75;;;1.10;;
41629;SDS011;27322;49.488;8.480;2023-04-03T12:16:49;2.67;;;0.90;;
41629;SDS011;27322;49.488;8.480;2023-04-03T12:19:33;1.95;;;0.80;;
41629;SDS011;27322;49.488;8.480;2023-04-03T12:22:12;4.05;;;1.02;;
41629;SDS011;27322;49.488;8.480;2023-04-03T12:24:45;2.47;;;1.00;;
41629;SDS011;27322;49.488;8.480;2023-04-03T12:32:36;2.42;;;1.10;;
41629;SDS011;27322;49.488;8.480;2023-04-03T12:48:36;2.75;;;1.00;;
41629;SDS011;27322;49.488;8.480;2023-04-03T12:51:09;2.88;;;0.93;;
41629;SDS011;27322;49.488;8.480;2023-04-03T12:57:08;2.78;;;0.90;;
41629;SDS011;27322;49.488;8.480;2023-04-03T12:59:44;3.40;;;0.95;;
41629;SDS011;27322;49.488;8.480;2023-04-03T13:04:59;4.82;;;1.00;;
41629;SDS011;27322;49.488;8.480;2023-04-03T13:07:32;3.28;;;1.10;;
41629;SDS011;27322;49.488;8.480;2023-04-03T13:10:13;2.67;;;1.00;;
41629;SDS011;27322;49.488;8.480;2023-04-03T13:15:20;2.92;;;1.10;;
41629;SDS011;27322;49.488;8.480;2023-04-03T13:17:51;4.45;;;1.15;;
41629;SDS011;27322;49.488;8.480;2023-04-03T13:20:27;3.92;;;1.23;;
41629;SDS011;27322;49.488;8.480;2023-04-03T13:22:56;3.80;;;1.17;;
41629;SDS011;27322;49.488;8.480;2023-04-03T13:25:26;4.25;;;1.40;;
41629;SDS011;27322;49.488;8.480;2023-04-03T13:27:56;4.20;;;1.40;;
41629;SDS011;27322;49.488;8.480;2023-04-03T13:30:26;3.95;;;1.25;;
41629;SDS011;27322;49.488;8.480;2023-04-03T13:32:58;4.18;;;1.40;;
41629;SDS011;27322;49.488;8.480;2023-04-03T13:38:03;3.28;;;1.10;;
41629;SDS011;27322;49.488;8.480;2023-04-03T13:40:54;5.63;;;1.25;;
41629;SDS011;27322;49.488;8.480;2023-04-03T13:43:26;4.25;;;1.45;;
41629;SDS011;27322;49.488;8.480;2023-04-03T13:45:54;4.07;;;1.10;;
41629;SDS011;27322;49.488;8.480;2023-04-03T13:48:21;2.90;;;1.20;;
41629;SDS011;27322;49.488;8.480;2023-04-03T13:50:52;2.63;;;1.00;;
41629;SDS011;27322;49.488;8.480;2023-04-03T13:53:21;5.30;;;1.13;;
41629;SDS011;27322;49.488;8.480;2023-04-03T13:55:53;4.50;;;1.73;;
41629;SDS011;27322;49.488;8.480;2023-04-03T13:58:23;3.42;;;1.38;;
41629;SDS011;27322;49.488;8.480;2023-04-03T14:01:40;3.95;;;1.20;;
41629;SDS011;27322;49.488;8.480;2023-04-03T14:03:44;3.55;;;1.38;;
41629;SDS011;27322;49.488;8.480;2023-04-03T14:06:12;5.05;;;1.30;;
41629;SDS011;27322;49.488;8.480;2023-04-03T14:08:40;4.18;;;1.55;;
41629;SDS011;27322;49.488;8.480;2023-04-03T14:11:14;3.63;;;1.40;;
41629;SDS011;27322;49.488;8.480;2023-04-03T14:13:43;5.32;;;1.40;;
41629;SDS011;27322;49.488;8.480;2023-04-03T14:16:20;4.25;;;1.33;;
41629;SDS011;27322;49.488;8.480;2023-04-03T14:18:48;3.88;;;1.25;;
41629;SDS011;27322;49.488;8.480;2023-04-03T14:21:19;3.53;;;1.20;;
41629;SDS011;27322;49.488;8.480;2023-04-03T14:23:46;2.95;;;1.17;;
41629;SDS011;27322;49.488;8.480;2023-04-03T14:26:12;3.53;;;1.20;;
41629;SDS011;27322;49.488;8.480;2023-04-03T14:28:41;3.58;;;1.20;;
41629;SDS011;27322;49.488;8.480;2023-04-03T14:31:09;4.03;;;1.40;;
41629;SDS011;27322;49.488;8.480;2023-04-03T14:33:35;4.25;;;1.25;;
41629;SDS011;27322;49.488;8.480;2023-04-03T14:36:04;3.80;;;1.20;;
41629;SDS011;27322;49.488;8.480;2023-04-03T14:38:42;3.53;;;1.23;;
41629;SDS011;27322;49.488;8.480;2023-04-03T14:41:10;3.20;;;1.08;;
41629;SDS011;27322;49.488;8.480;2023-04-03T14:43:40;3.95;;;1.25;;
41629;SDS011;27322;49.488;8.480;2023-04-03T14:46:12;4.40;;;1.42;;
41629;SDS011;27322;49.488;8.480;2023-04-03T14:48:39;5.38;;;1.50;;
41629;SDS011;27322;49.488;8.480;2023-04-03T14:51:05;3.45;;;1.25;;
41629;SDS011;27322;49.488;8.480;2023-04-03T14:53:31;3.50;;;1.20;;
41629;SDS011;27322;49.488;8.480;2023-04-03T14:55:57;4.50;;;1.27;;
41629;SDS011;27322;49.488;8.480;2023-04-03T14:58:23;4.63;;;1.30;;
41629;SDS011;27322;49.488;8.480;2023-04-03T15:00:49;3.63;;;1.25;;
41629;SDS011;27322;49.488;8.480;2023-04-03T15:03:15;2.85;;;1.20;;
41629;SDS011;27322;49.488;8.480;2023-04-03T15:05:43;2.95;;;1.00;;
41629;SDS011;27322;49.488;8.480;2023-04-03T15:08:20;2.65;;;1.13;;
41629;SDS011;27322;49.488;8.480;2023-04-03T15:10:49;3.63;;;1.02;;
41629;SDS011;27322;49.488;8.480;2023-04-03T15:13:17;4.30;;;1.20;;
41629;SDS011;27322;49.488;8.480;2023-04-03T15:15:44;3.70;;;1.10;;
41629;SDS011;27322;49.488;8.480;2023-04-03T15:18:22;3.15;;;0.98;;
41629;SDS011;27322;49.488;8.480;2023-04-03T15:20:53;2.80;;;1.00;;
41629;SDS011;27322;49.488;8.480;2023-04-03T15:23:20;2.70;;;0.95;;
41629;SDS011;27322;49.488;8.480;2023-04-03T15:25:50;3.17;;;1.13;;
41629;SDS011;27322;49.488;8.480;2023-04-03T15:28:18;5.78;;;1.20;;
41629;SDS011;27322;49.488;8.480;2023-04-03T15:30:52;3.22;;;1.15;;
41629;SDS011;27322;49.488;8.480;2023-04-03T15:33:18;3.95;;;1.10;;
41629;SDS011;27322;49.488;8.480;2023-04-03T15:35:44;3.22;;;1.00;;
41629;SDS011;27322;49.488;8.480;2023-04-03T15:38:09;2.97;;;0.90;;
41629;SDS011;27322;49.488;8.480;2023-04-03T15:40:35;4.32;;;1.10;;
41629;SDS011;27322;49.488;8.480;2023-04-03T15:43:01;3.28;;;1.30;;
41629;SDS011;27322;49.488;8.480;2023-04-03T15:45:30;4.50;;;1.20;;
41629;SDS011;27322;49.488;8.480;2023-04-03T15:47:57;2.75;;;1.10;;
41629;SDS011;27322;49.488;8.480;2023-04-03T15:50:23;2.08;;;0.90;;
41629;SDS011;27322;49.488;8.480;2023-04-03T15:52:49;2.75;;;0.90;;
41629;SDS011;27322;49.488;8.480;2023-04-03T15:55:20;3.20;;;1.13;;
41629;SDS011;27322;49.488;8.480;2023-04-03T15:57:47;3.20;;;0.90;;
41629;SDS011;27322;49.488;8.480;2023-04-03T16:00:12;2.85;;;1.00;;
41629;SDS011;27322;49.488;8.480;2023-04-03T16:02:38;2.78;;;1.20;;
41629;SDS011;27322;49.488;8.480;2023-04-03T16:05:05;3.47;;;1.30;;
41629;SDS011;27322;49.488;8.480;2023-04-03T16:07:31;5.38;;;1.13;;
41629;SDS011;27322;49.488;8.480;2023-04-03T16:09:56;2.80;;;1.10;;
41629;SDS011;27322;49.488;8.480;2023-04-03T16:12:22;3.00;;;0.90;;
41629;SDS011;27322;49.488;8.480;2023-04-03T16:14:48;3.05;;;1.10;;
41629;SDS011;27322;49.488;8.480;2023-04-03T16:17:13;2.28;;;0.90;;
41629;SDS011;27322;49.488;8.480;2023-04-03T16:19:39;3.42;;;1.13;;
41629;SDS011;27322;49.488;8.480;2023-04-03T16:22:05;2.97;;;0.88;;
41629;SDS011;27322;49.488;8.480;2023-04-03T16:24:31;2.30;;;0.82;;
41629;SDS011;27322;49.488;8.480;2023-04-03T16:26:57;2.08;;;0.75;;
41629;SDS011;27322;49.488;8.480;2023-04-03T16:29:23;2.97;;;0.90;;
41629;SDS011;27322;49.488;8.480;2023-04-03T16:31:48;2.67;;;1.00;;
41629;SDS011;27322;49.488;8.480;2023-04-03T16:34:14;2.75;;;0.98;;
41629;SDS011;27322;49.488;8.480;2023-04-03T16:36:41;3.50;;;0.90;;
41629;SDS011;27322;49.488;8.480;2023-04-03T16:39:06;3.15;;;1.00;;